sensor_id;sensor_type;location;lat;lon;timestamp;temperature;humidity
55711;DHT22;41612;51.994;5.880;2023-11-22T00:30:13;5.40;91.60
55711;DHT22;41612;51.994;5.880;2023-11-22T00:33:02;5.30;91.60
55711;DHT22;41612;51.994;5.880;2023-11-22T00:35:55;5.30;91.60
55711;DHT22;41612;51.994;5.880;2023-11-22T00:38:37;5.30;91.60
55711;DHT22;41612;51.994;5.880;2023-11-22T00:41:20;5.30;91.60
55711;DHT22;41612;51.994;5.880;2023-11-22T00:43:57;5.30;91.50
55711;DHT22;41612;51.994;5.880;2023-11-22T00:46:25;5.30;91.60
55711;DHT22;41612;51.994;5.880;2023-11-22T00:49:07;5.20;91.50
55711;DHT22;41612;51.994;5.880;2023-11-22T02:46:27;4.60;91.50
55711;DHT22;41612;51.994;5.880;2023-11-22T04:00:27;4.20;91.50
55711;DHT22;41612;51.994;5.880;2023-11-22T04:02:52;4.20;91.50
55711;DHT22;41612;51.994;5.880;2023-11-22T04:05:19;4.20;91.40
55711;DHT22;41612;51.994;5.880;2023-11-22T04:07:45;4.10;91.40
55711;DHT22;41612;51.994;5.880;2023-11-22T04:10:11;4.10;91.40
55711;DHT22;41612;51.994;5.880;2023-11-22T04:12:37;4.10;91.40
55711;DHT22;41612;51.994;5.880;2023-11-22T04:15:04;4.10;91.30
55711;DHT22;41612;51.994;5.880;2023-11-22T04:17:34;4.10;91.30
55711;DHT22;41612;51.994;5.880;2023-11-22T04:20:01;4.10;91.30
55711;DHT22;41612;51.994;5.880;2023-11-22T04:22:28;4.00;91.20
55711;DHT22;41612;51.994;5.880;2023-11-22T04:24:54;4.00;91.30
55711;DHT22;41612;51.994;5.880;2023-11-22T04:27:21;4.00;91.20
55711;DHT22;41612;51.994;5.880;2023-11-22T04:29:48;4.00;91.20
55711;DHT22;41612;51.994;5.880;2023-11-22T04:32:14;4.00;91.20
55711;DHT22;41612;51.994;5.880;2023-11-22T04:34:40;3.90;91.20
55711;DHT22;41612;51.994;5.880;2023-11-22T04:37:06;3.90;91.10
55711;DHT22;41612;51.994;5.880;2023-11-22T04:39:32;3.90;91.10
55711;DHT22;41612;51.994;5.880;2023-11-22T04:41:57;3.90;91.10
55711;DHT22;41612;51.994;5.880;2023-11-22T04:44:23;3.80;91.00
55711;DHT22;41612;51.994;5.880;2023-11-22T04:46:49;3.80;91.00
55711;DHT22;41612;51.994;5.880;2023-11-22T04:49:14;3.80;91.00
55711;DHT22;41612;51.994;5.880;2023-11-22T04:51:40;3.80;91.10
55711;DHT22;41612;51.994;5.880;2023-11-22T04:54:08;3.80;91.10
55711;DHT22;41612;51.994;5.880;2023-11-22T04:56:34;3.70;91.10
55711;DHT22;41612;51.994;5.880;2023-11-22T04:59:00;3.80;91.20
55711;DHT22;41612;51.994;5.880;2023-11-22T05:01:32;3.70;91.20
55711;DHT22;41612;51.994;5.880;2023-11-22T05:03:57;3.70;91.20
55711;DHT22;41612;51.994;5.880;2023-11-22T05:06:24;3.70;91.20
55711;DHT22;41612;51.994;5.880;2023-11-22T05:08:52;3.70;91.20
55711;DHT22;41612;51.994;5.880;2023-11-22T05:11:17;3.70;91.20
55711;DHT22;41612;51.994;5.880;2023-11-22T05:13:43;3.70;91.20
55711;DHT22;41612;51.994;5.880;2023-11-22T05:16:11;3.70;91.30
55711;DHT22;41612;51.994;5.880;2023-11-22T05:18:36;3.70;91.30
55711;DHT22;41612;51.994;5.880;2023-11-22T05:21:02;3.70;91.20
55711;DHT22;41612;51.994;5.880;2023-11-22T05:23:31;3.60;91.20
55711;DHT22;41612;51.994;5.880;2023-11-22T05:25:58;3.60;91.20
55711;DHT22;41612;51.994;5.880;2023-11-22T05:28:25;3.60;91.20
55711;DHT22;41612;51.994;5.880;2023-11-22T05:30:51;3.70;91.30
55711;DHT22;41612;51.994;5.880;2023-11-22T05:33:18;3.60;91.20
55711;DHT22;41612;51.994;5.880;2023-11-22T05:35:44;3.70;91.30
55711;DHT22;41612;51.994;5.880;2023-11-22T05:38:09;3.70;91.30
55711;DHT22;41612;51.994;5.880;2023-11-22T05:40:35;3.70;91.40
55711;DHT22;41612;51.994;5.880;2023-11-22T05:43:02;3.70;91.40
55711;DHT22;41612;51.994;5.880;2023-11-22T05:45:29;3.80;91.30
55711;DHT22;41612;51.994;5.880;2023-11-22T05:47:55;3.80;91.30
55711;DHT22;41612;51.994;5.880;2023-11-22T05:50:21;3.80;91.40
55711;DHT22;41612;51.994;5.880;2023-11-22T05:52:47;3.80;91.30
55711;DHT22;41612;51.994;5.880;2023-11-22T05:55:13;3.90;91.40
55711;DHT22;41612;51.994;5.880;2023-11-22T05:57:40;3.80;91.30
55711;DHT22;41612;51.994;5.880;2023-11-22T06:00:07;3.90;91.30
55711;DHT22;41612;51.994;5.880;2023-11-22T06:02:33;3.90;91.30
55711;DHT22;41612;51.994;5.880;2023-11-22T06:04:59;3.90;91.30
55711;DHT22;41612;51.994;5.880;2023-11-22T06:07:26;3.90;91.30
55711;DHT22;41612;51.994;5.880;2023-11-22T06:09:52;3.90;91.30
55711;DHT22;41612;51.994;5.880;2023-11-22T06:12:18;4.00;91.30
55711;DHT22;41612;51.994;5.880;2023-11-22T06:14:46;4.00;91.20
55711;DHT22;41612;51.994;5.880;2023-11-22T06:17:12;4.00;91.20
55711;DHT22;41612;51.994;5.880;2023-11-22T06:19:38;4.00;91.20
55711;DHT22;41612;51.994;5.880;2023-11-22T06:22:04;4.00;91.20
55711;DHT22;41612;51.994;5.880;2023-11-22T06:24:29;4.00;91.20
55711;DHT22;41612;51.994;5.880;2023-11-22T06:26:56;4.00;91.20
55711;DHT22;41612;51.994;5.880;2023-11-22T06:29:22;4.00;91.20
55711;DHT22;41612;51.994;5.880;2023-11-22T06:31:49;4.10;91.20
55711;DHT22;41612;51.994;5.880;2023-11-22T06:34:18;4.10;91.30
55711;DHT22;41612;51.994;5.880;2023-11-22T06:36:45;4.10;91.30
55711;DHT22;41612;51.994;5.880;2023-11-22T06:39:12;4.10;91.30
55711;DHT22;41612;51.994;5.880;2023-11-22T06:41:41;4.10;91.30
55711;DHT22;41612;51.994;5.880;2023-11-22T06:44:06;4.10;91.20
55711;DHT22;41612;51.994;5.880;2023-11-22T06:46:32;4.10;91.20
55711;DHT22;41612;51.994;5.880;2023-11-22T06:48:58;4.10;91.20
55711;DHT22;41612;51.994;5.880;2023-11-22T06:51:24;4.10;91.20
55711;DHT22;41612;51.994;5.880;2023-11-22T06:53:51;4.10;91.20
55711;DHT22;41612;51.994;5.880;2023-11-22T06:56:19;4.10;91.20
55711;DHT22;41612;51.994;5.880;2023-11-22T06:58:47;4.20;91.20
55711;DHT22;41612;51.994;5.880;2023-11-22T07:01:13;4.20;91.20
55711;DHT22;41612;51.994;5.880;2023-11-22T07:03:41;4.20;91.20
55711;DHT22;41612;51.994;5.880;2023-11-22T07:06:10;4.20;91.30
55711;DHT22;41612;51.994;5.880;2023-11-22T07:08:38;4.20;91.30
55711;DHT22;41612;51.994;5.880;2023-11-22T07:11:05;4.20;91.30
55711;DHT22;41612;51.994;5.880;2023-11-22T07:13:33;4.20;91.30
55711;DHT22;41612;51.994;5.880;2023-11-22T07:16:00;4.30;91.40
55711;DHT22;41612;51.994;5.880;2023-11-22T07:18:25;4.30;91.40
55711;DHT22;41612;51.994;5.880;2023-11-22T07:20:53;4.30;91.30
55711;DHT22;41612;51.994;5.880;2023-11-22T07:23:20;4.30;91.30
55711;DHT22;41612;51.994;5.880;2023-11-22T07:25:52;4.30;91.30
55711;DHT22;41612;51.994;5.880;2023-11-22T07:28:18;4.30;91.40
55711;DHT22;41612;51.994;5.880;2023-11-22T07:30:45;4.30;91.40
55711;DHT22;41612;51.994;5.880;2023-11-22T07:33:14;4.40;91.40
55711;DHT22;41612;51.994;5.880;2023-11-22T07:35:40;4.40;91.40
55711;DHT22;41612;51.994;5.880;2023-11-22T07:38:06;4.50;91.50
55711;DHT22;41612;51.994;5.880;2023-11-22T07:40:36;4.50;91.50
55711;DHT22;41612;51.994;5.880;2023-11-22T07:43:03;4.50;91.50
55711;DHT22;41612;51.994;5.880;2023-11-22T07:45:31;4.60;91.60
55711;DHT22;41612;51.994;5.880;2023-11-22T07:47:57;4.60;91.60
55711;DHT22;41612;51.994;5.880;2023-11-22T07:50:26;4.70;91.60
55711;DHT22;41612;51.994;5.880;2023-11-22T07:52:53;4.70;91.70
55711;DHT22;41612;51.994;5.880;2023-11-22T07:55:20;4.70;91.70
55711;DHT22;41612;51.994;5.880;2023-11-22T07:57:45;4.70;91.80
55711;DHT22;41612;51.994;5.880;2023-11-22T08:00:12;4.80;91.70
55711;DHT22;41612;51.994;5.880;2023-11-22T08:02:39;4.80;91.70
55711;DHT22;41612;51.994;5.880;2023-11-22T08:05:05;4.70;91.70
55711;DHT22;41612;51.994;5.880;2023-11-22T08:07:37;4.70;91.60
55711;DHT22;41612;51.994;5.880;2023-11-22T08:10:15;4.70;91.60
55711;DHT22;41612;51.994;5.880;2023-11-22T08:12:57;4.80;91.70
55711;DHT22;41612;51.994;5.880;2023-11-22T08:15:23;4.80;91.80
55711;DHT22;41612;51.994;5.880;2023-11-22T08:17:48;4.80;91.80
55711;DHT22;41612;51.994;5.880;2023-11-22T08:20:15;4.90;91.80
55711;DHT22;41612;51.994;5.880;2023-11-22T08:22:44;5.00;91.90
55711;DHT22;41612;51.994;5.880;2023-11-22T08:25:16;5.00;91.90
55711;DHT22;41612;51.994;5.880;2023-11-22T08:27:42;5.10;91.90
55711;DHT22;41612;51.994;5.880;2023-11-22T08:30:09;5.10;91.90
55711;DHT22;41612;51.994;5.880;2023-11-22T08:32:45;5.10;91.90
55711;DHT22;41612;51.994;5.880;2023-11-22T08:35:19;5.20;92.00
55711;DHT22;41612;51.994;5.880;2023-11-22T08:37:47;5.20;92.10
55711;DHT22;41612;51.994;5.880;2023-11-22T08:40:13;5.30;92.00
55711;DHT22;41612;51.994;5.880;2023-11-22T08:42:46;5.30;92.10
55711;DHT22;41612;51.994;5.880;2023-11-22T08:45:11;5.40;92.00
55711;DHT22;41612;51.994;5.880;2023-11-22T08:47:39;5.50;92.00
55711;DHT22;41612;51.994;5.880;2023-11-22T08:50:08;5.50;92.10
55711;DHT22;41612;51.994;5.880;2023-11-22T08:52:38;5.50;92.10
55711;DHT22;41612;51.994;5.880;2023-11-22T08:55:05;5.50;92.10
55711;DHT22;41612;51.994;5.880;2023-11-22T08:57:35;5.50;92.00
55711;DHT22;41612;51.994;5.880;2023-11-22T09:00:01;5.50;92.00
55711;DHT22;41612;51.994;5.880;2023-11-22T09:02:32;5.50;91.90
55711;DHT22;41612;51.994;5.880;2023-11-22T09:04:58;5.50;92.00
55711;DHT22;41612;51.994;5.880;2023-11-22T09:07:24;5.50;92.10
55711;DHT22;41612;51.994;5.880;2023-11-22T09:09:50;5.60;92.10
55711;DHT22;41612;51.994;5.880;2023-11-22T09:12:17;5.60;92.20
55711;DHT22;41612;51.994;5.880;2023-11-22T09:14:45;5.70;92.20
55711;DHT22;41612;51.994;5.880;2023-11-22T09:17:12;5.70;92.00
55711;DHT22;41612;51.994;5.880;2023-11-22T09:19:39;5.70;91.90
55711;DHT22;41612;51.994;5.880;2023-11-22T09:22:05;5.70;92.10
55711;DHT22;41612;51.994;5.880;2023-11-22T09:24:34;5.80;92.00
55711;DHT22;41612;51.994;5.880;2023-11-22T09:27:03;5.80;92.00
55711;DHT22;41612;51.994;5.880;2023-11-22T09:29:31;5.80;92.10
55711;DHT22;41612;51.994;5.880;2023-11-22T09:31:58;5.90;92.20
55711;DHT22;41612;51.994;5.880;2023-11-22T09:34:26;5.90;92.10
55711;DHT22;41612;51.994;5.880;2023-11-22T09:36:53;5.90;92.10
55711;DHT22;41612;51.994;5.880;2023-11-22T09:39:19;6.00;92.10
55711;DHT22;41612;51.994;5.880;2023-11-22T09:41:47;6.00;92.10
55711;DHT22;41612;51.994;5.880;2023-11-22T09:44:14;6.00;92.20
55711;DHT22;41612;51.994;5.880;2023-11-22T09:46:41;6.10;92.30
55711;DHT22;41612;51.994;5.880;2023-11-22T09:49:08;6.20;92.20
55711;DHT22;41612;51.994;5.880;2023-11-22T09:51:37;6.20;92.00
55711;DHT22;41612;51.994;5.880;2023-11-22T09:54:06;6.10;91.90
55711;DHT22;41612;51.994;5.880;2023-11-22T09:56:34;6.20;92.10
55711;DHT22;41612;51.994;5.880;2023-11-22T09:59:03;6.20;92.10
55711;DHT22;41612;51.994;5.880;2023-11-22T10:01:30;6.20;92.00
55711;DHT22;41612;51.994;5.880;2023-11-22T10:04:02;6.20;92.20
55711;DHT22;41612;51.994;5.880;2023-11-22T10:06:31;6.20;92.20
55711;DHT22;41612;51.994;5.880;2023-11-22T10:09:02;6.20;91.70
55711;DHT22;41612;51.994;5.880;2023-11-22T10:11:33;6.20;91.90
55711;DHT22;41612;51.994;5.880;2023-11-22T10:14:00;6.20;92.10
55711;DHT22;41612;51.994;5.880;2023-11-22T10:16:25;6.30;92.10
55711;DHT22;41612;51.994;5.880;2023-11-22T10:18:51;6.30;92.10
55711;DHT22;41612;51.994;5.880;2023-11-22T10:21:25;6.30;91.80
55711;DHT22;41612;51.994;5.880;2023-11-22T10:23:54;6.30;91.90
55711;DHT22;41612;51.994;5.880;2023-11-22T10:26:22;6.40;92.00
55711;DHT22;41612;51.994;5.880;2023-11-22T10:32:03;6.30;91.80
55711;DHT22;41612;51.994;5.880;2023-11-22T10:34:35;6.30;91.90
55711;DHT22;41612;51.994;5.880;2023-11-22T10:37:06;6.20;91.60
55711;DHT22;41612;51.994;5.880;2023-11-22T10:39:40;6.20;91.80
55711;DHT22;41612;51.994;5.880;2023-11-22T10:42:13;6.30;92.00
55711;DHT22;41612;51.994;5.880;2023-11-22T10:44:50;6.50;92.20
55711;DHT22;41612;51.994;5.880;2023-11-22T10:47:17;6.70;92.40
55711;DHT22;41612;51.994;5.880;2023-11-22T10:49:51;6.90;92.30
55711;DHT22;41612;51.994;5.880;2023-11-22T10:52:34;7.00;92.30
55711;DHT22;41612;51.994;5.880;2023-11-22T10:55:05;7.20;92.50
55711;DHT22;41612;51.994;5.880;2023-11-22T10:57:40;7.40;92.50
55711;DHT22;41612;51.994;5.880;2023-11-22T11:00:09;7.60;92.50
55711;DHT22;41612;51.994;5.880;2023-11-22T11:02:44;7.50;92.50
55711;DHT22;41612;51.994;5.880;2023-11-22T11:05:16;7.50;91.90
55711;DHT22;41612;51.994;5.880;2023-11-22T11:07:49;7.30;91.50
55711;DHT22;41612;51.994;5.880;2023-11-22T11:10:20;7.30;91.30
55711;DHT22;41612;51.994;5.880;2023-11-22T11:12:48;7.20;91.30
55711;DHT22;41612;51.994;5.880;2023-11-22T11:15:15;7.20;91.00
55711;DHT22;41612;51.994;5.880;2023-11-22T11:17:47;7.20;91.00
55711;DHT22;41612;51.994;5.880;2023-11-22T11:20:18;7.30;91.40
55711;DHT22;41612;51.994;5.880;2023-11-22T11:22:48;7.20;90.60
55711;DHT22;41612;51.994;5.880;2023-11-22T11:25:21;7.20;90.50
55711;DHT22;41612;51.994;5.880;2023-11-22T11:28:00;7.20;90.80
55711;DHT22;41612;51.994;5.880;2023-11-22T11:30:56;7.50;91.40
55711;DHT22;41612;51.994;5.880;2023-11-22T11:34:13;7.70;91.70
55711;DHT22;41612;51.994;5.880;2023-11-22T11:36:52;8.10;92.30
55711;DHT22;41612;51.994;5.880;2023-11-22T11:39:41;8.20;92.00
55711;DHT22;41612;51.994;5.880;2023-11-22T11:55:37;7.80;90.60
55711;DHT22;41612;51.994;5.880;2023-11-22T11:58:17;8.00;90.80
55711;DHT22;41612;51.994;5.880;2023-11-22T12:18:49;8.00;90.10
55711;DHT22;41612;51.994;5.880;2023-11-22T12:21:16;8.60;91.60
55711;DHT22;41612;51.994;5.880;2023-11-22T12:23:44;9.20;92.40
55711;DHT22;41612;51.994;5.880;2023-11-22T12:26:16;9.70;92.00
55711;DHT22;41612;51.994;5.880;2023-11-22T12:28:47;10.00;91.20
55711;DHT22;41612;51.994;5.880;2023-11-22T12:31:30;10.20;89.70
55711;DHT22;41612;51.994;5.880;2023-11-22T12:34:00;10.40;89.30
55711;DHT22;41612;51.994;5.880;2023-11-22T12:36:25;10.70;89.70
55711;DHT22;41612;51.994;5.880;2023-11-22T12:38:55;11.50;91.00
55711;DHT22;41612;51.994;5.880;2023-11-22T12:41:23;11.50;83.70
55711;DHT22;41612;51.994;5.880;2023-11-22T12:44:05;11.20;83.60
55711;DHT22;41612;51.994;5.880;2023-11-22T12:46:51;10.80;83.30
55711;DHT22;41612;51.994;5.880;2023-11-22T12:49:22;10.50;83.30
55711;DHT22;41612;51.994;5.880;2023-11-22T12:51:52;10.20;83.20
55711;DHT22;41612;51.994;5.880;2023-11-22T12:54:18;10.00;84.40
55711;DHT22;41612;51.994;5.880;2023-11-22T12:56:49;10.00;84.90
55711;DHT22;41612;51.994;5.880;2023-11-22T12:59:15;10.00;83.70
55711;DHT22;41612;51.994;5.880;2023-11-22T13:01:43;9.80;81.90
55711;DHT22;41612;51.994;5.880;2023-11-22T13:04:09;9.60;78.60
55711;DHT22;41612;51.994;5.880;2023-11-22T13:06:35;9.40;82.20
55711;DHT22;41612;51.994;5.880;2023-11-22T13:09:01;9.30;82.50
55711;DHT22;41612;51.994;5.880;2023-11-22T13:11:40;9.00;82.50
55711;DHT22;41612;51.994;5.880;2023-11-22T13:14:09;8.70;81.50
55711;DHT22;41612;51.994;5.880;2023-11-22T13:16:35;8.40;81.60
55711;DHT22;41612;51.994;5.880;2023-11-22T13:19:06;8.10;82.10
55711;DHT22;41612;51.994;5.880;2023-11-22T13:21:32;7.90;82.10
55711;DHT22;41612;51.994;5.880;2023-11-22T13:24:12;7.70;82.10
55711;DHT22;41612;51.994;5.880;2023-11-22T13:26:47;7.50;83.10
55711;DHT22;41612;51.994;5.880;2023-11-22T13:29:14;7.30;82.60
55711;DHT22;41612;51.994;5.880;2023-11-22T13:31:51;7.20;83.30
55711;DHT22;41612;51.994;5.880;2023-11-22T13:34:19;7.00;83.30
55711;DHT22;41612;51.994;5.880;2023-11-22T13:36:50;7.00;84.00
55711;DHT22;41612;51.994;5.880;2023-11-22T13:39:18;7.00;84.80
55711;DHT22;41612;51.994;5.880;2023-11-22T13:42:09;7.00;84.50
55711;DHT22;41612;51.994;5.880;2023-11-22T13:44:39;7.00;84.80
55711;DHT22;41612;51.994;5.880;2023-11-22T13:47:12;7.00;84.50
55711;DHT22;41612;51.994;5.880;2023-11-22T17:24:43;5.90;86.30
55711;DHT22;41612;51.994;5.880;2023-11-22T17:27:08;5.80;86.50
55711;DHT22;41612;51.994;5.880;2023-11-22T17:29:34;5.80;86.80
55711;DHT22;41612;51.994;5.880;2023-11-22T17:32:00;5.80;87.00
55711;DHT22;41612;51.994;5.880;2023-11-22T17:34:25;5.80;86.60
55711;DHT22;41612;51.994;5.880;2023-11-22T17:36:52;5.80;86.60
55711;DHT22;41612;51.994;5.880;2023-11-22T17:39:17;5.80;86.50
55711;DHT22;41612;51.994;5.880;2023-11-22T17:41:44;5.80;86.80
55711;DHT22;41612;51.994;5.880;2023-11-22T17:44:09;5.80;86.90
55711;DHT22;41612;51.994;5.880;2023-11-22T17:46:39;5.80;86.80
55711;DHT22;41612;51.994;5.880;2023-11-22T17:49:07;5.80;86.90
55711;DHT22;41612;51.994;5.880;2023-11-22T17:51:33;5.90;87.10
55711;DHT22;41612;51.994;5.880;2023-11-22T17:53:58;5.90;86.90
55711;DHT22;41612;51.994;5.880;2023-11-22T17:56:24;5.90;86.70
55711;DHT22;41612;51.994;5.880;2023-11-22T17:59:05;5.90;86.90
55711;DHT22;41612;51.994;5.880;2023-11-22T18:01:57;6.00;86.90
55711;DHT22;41612;51.994;5.880;2023-11-22T18:04:31;5.90;86.70
55711;DHT22;41612;51.994;5.880;2023-11-22T18:07:46;6.00;86.90
55711;DHT22;41612;51.994;5.880;2023-11-22T18:10:11;6.00;86.80
55711;DHT22;41612;51.994;5.880;2023-11-22T18:12:38;6.00;86.60
